createdAt,value
2017-12-27T00:07:40.749Z,22.3
2017-12-27T00:10:37.844Z,22.2
2017-12-27T00:13:34.778Z,22.2
2017-12-27T00:19:28.734Z,22.2
2017-12-27T00:22:25.667Z,22.2
2017-12-27T00:25:22.785Z,22.2
2017-12-27T00:28:19.706Z,22.3
2017-12-27T00:31:16.751Z,22.4
2017-12-27T00:34:13.802Z,22.4
2017-12-27T00:40:07.739Z,22.4
2017-12-27T00:43:04.675Z,22.4
2017-12-27T00:46:01.745Z,22.4
2017-12-27T00:51:56.916Z,22.5
2017-12-27T00:57:50.495Z,22.5
2017-12-27T01:00:47.778Z,22.6
2017-12-27T01:06:40.967Z,22.6
2017-12-27T01:09:37.763Z,22.6
2017-12-27T01:12:34.827Z,22.6
2017-12-27T01:15:31.849Z,22.6
2017-12-27T01:18:28.813Z,22.6
2017-12-27T01:21:25.753Z,22.6
2017-12-27T01:27:19.923Z,22.5
2017-12-27T01:30:16.784Z,22.6
2017-12-27T01:33:13.867Z,22.6
2017-12-27T01:36:10.746Z,22.6
2017-12-27T01:39:07.807Z,22.7
2017-12-27T01:42:04.758Z,22.7
2017-12-27T01:45:01.791Z,22.7
2017-12-27T01:47:58.751Z,22.7
2017-12-27T01:50:55.840Z,22.8
2017-12-27T01:59:46.819Z,22.6
2017-12-27T02:05:40.863Z,22.8
2017-12-27T02:08:37.757Z,22.7
2017-12-27T02:14:32.871Z,22.9
2017-12-27T02:17:28.722Z,23.1
2017-12-27T02:20:25.809Z,23.3
2017-12-27T02:23:22.885Z,23.4
2017-12-27T02:26:19.822Z,23.6
2017-12-27T02:29:17.756Z,23.6
2017-12-27T02:32:13.829Z,23.6
2017-12-27T02:35:10.795Z,23.8
2017-12-27T02:38:07.843Z,23.8
2017-12-27T02:41:05.852Z,23.8
2017-12-27T02:44:01.831Z,23.9
2017-12-27T02:49:55.951Z,23.8
2017-12-27T02:52:53.901Z,23.8
2017-12-27T03:01:44.955Z,23.9
2017-12-27T03:04:41.859Z,23.9
2017-12-27T03:07:38.856Z,23.9
2017-12-27T03:10:35.897Z,24
2017-12-27T03:19:26.911Z,24.2
2017-12-27T03:25:19.934Z,24.2
2017-12-27T03:28:16.784Z,24.2
2017-12-27T03:34:11.923Z,24.2
2017-12-27T03:37:07.929Z,24.1
2017-12-27T03:40:04.921Z,24.1
2017-12-27T03:43:02.807Z,24.1
2017-12-27T03:45:58.985Z,24.2
2017-12-27T03:48:57.100Z,24.2
2017-12-27T03:51:54.067Z,24.3
2017-12-27T03:54:50.968Z,24.4
2017-12-27T03:57:47.881Z,24.5
2017-12-27T04:12:33.046Z,25.1
2017-12-27T04:15:29.825Z,25.1
2017-12-27T04:24:21.042Z,25.3
2017-12-27T04:27:17.942Z,25.4
2017-12-27T04:30:14.975Z,25.6
2017-12-27T04:33:12.125Z,25.6
2017-12-27T04:36:08.873Z,25.7
2017-12-27T04:39:05.858Z,25.8
2017-12-27T04:42:02.896Z,25.8
2017-12-27T04:44:59.809Z,26
2017-12-27T04:47:56.876Z,26
2017-12-27T04:50:53.838Z,26.1
2017-12-27T04:53:50.902Z,26.1
2017-12-27T04:56:47.838Z,26.2
2017-12-27T04:59:44.989Z,26.2
2017-12-27T05:02:41.817Z,26.3
2017-12-27T05:05:39.039Z,26.3
2017-12-27T05:08:35.840Z,26.3
2017-12-27T05:14:29.937Z,26.2
2017-12-27T05:17:26.859Z,26.3
2017-12-27T05:20:24.042Z,26.4
2017-12-27T05:23:20.866Z,26.5
2017-12-27T05:26:17.934Z,26.5
2017-12-27T05:29:14.870Z,26.6
2017-12-27T05:32:12.038Z,26.5
2017-12-27T05:35:08.819Z,26.6
2017-12-27T05:38:06.038Z,26.5
2017-12-27T05:41:02.913Z,26.6
2017-12-27T05:44:00.061Z,26.8
2017-12-27T05:46:56.840Z,26.8
2017-12-27T05:49:53.921Z,26.8
2017-12-27T05:52:50.820Z,26.8
2017-12-27T05:58:44.957Z,26.8
2017-12-27T06:07:36.133Z,26.9
2017-12-27T06:10:32.888Z,27
2017-12-27T06:16:26.953Z,27.3
2017-12-27T06:22:20.900Z,27.5
2017-12-27T06:25:18.006Z,27.6
2017-12-27T06:28:15.012Z,27.6
2017-12-27T06:31:11.878Z,27.7
2017-12-27T06:34:08.933Z,27.8
2017-12-27T06:37:06.031Z,27.7
2017-12-27T06:40:03.072Z,27.6
2017-12-27T06:43:00.030Z,27.6
2017-12-27T06:45:56.978Z,27.7
2017-12-27T06:48:54.026Z,27.7
2017-12-27T06:51:50.967Z,27.6
2017-12-27T06:54:48.002Z,27.4
2017-12-27T06:57:45.020Z,27.4
2017-12-27T07:00:41.942Z,27.5
2017-12-27T07:03:38.948Z,27.5
2017-12-27T07:06:35.941Z,27.5
2017-12-27T07:09:33.044Z,27.5
2017-12-27T07:12:29.938Z,27.4
2017-12-27T07:15:26.951Z,27.5
2017-12-27T07:18:24.035Z,27.5
2017-12-27T07:24:18.095Z,27.7
2017-12-27T07:27:14.937Z,27.9
2017-12-27T07:33:08.993Z,28.2
2017-12-27T07:36:05.909Z,28.2
2017-12-27T07:42:00.008Z,28.3
2017-12-27T07:44:57.211Z,28.3
2017-12-27T07:47:53.964Z,28.2
2017-12-27T07:50:50.920Z,28
2017-12-27T07:53:48.019Z,28
2017-12-27T07:56:44.959Z,28
2017-12-27T07:59:42.020Z,28
2017-12-27T08:02:39.051Z,27.9
2017-12-27T08:05:35.979Z,27.8
2017-12-27T08:08:32.933Z,27.8
2017-12-27T08:11:30.009Z,27.9
2017-12-27T08:14:26.956Z,28
2017-12-27T08:17:24.085Z,27.9
2017-12-27T08:20:20.916Z,27.8
2017-12-27T08:23:18.110Z,27.8
2017-12-27T08:26:14.982Z,27.7
2017-12-27T08:29:12.029Z,27.6
2017-12-27T08:32:09.002Z,27.6
2017-12-27T08:35:05.973Z,27.7
2017-12-27T08:38:02.925Z,27.7
2017-12-27T08:41:00.025Z,27.7
2017-12-27T08:46:53.979Z,27.7
2017-12-27T08:49:50.896Z,27.7
2017-12-27T08:55:45.004Z,27.8
2017-12-27T09:01:39.044Z,28
2017-12-27T09:04:35.923Z,28.1
2017-12-27T09:07:33.056Z,28.2
2017-12-27T09:10:29.986Z,28.3
2017-12-27T09:16:24.097Z,28.4
2017-12-27T09:22:18.061Z,28.4
2017-12-27T09:25:15.195Z,28.4
2017-12-27T09:31:09.026Z,28.5
2017-12-27T09:34:05.976Z,28.4
2017-12-27T09:40:00.041Z,28.2
2017-12-27T09:42:56.961Z,28.1
2017-12-27T09:45:55.069Z,28
2017-12-27T09:48:50.994Z,27.8
2017-12-27T09:51:48.196Z,27.8
2017-12-27T09:54:45.002Z,27.8
2017-12-27T10:03:36.006Z,27.6
2017-12-27T10:06:32.974Z,27.5
2017-12-27T10:09:30.103Z,27.5
2017-12-27T10:18:21.087Z,27.3
2017-12-27T10:21:18.139Z,27.3
2017-12-27T10:24:15.104Z,27.2
2017-12-27T10:27:12.082Z,27.2
2017-12-27T10:30:09.291Z,27.2
2017-12-27T10:33:06.081Z,27.1
2017-12-27T10:39:00.137Z,27
2017-12-27T10:44:54.131Z,26.9
2017-12-27T10:47:51.075Z,26.8
2017-12-27T10:53:45.151Z,26.8
2017-12-27T10:56:42.071Z,26.7
2017-12-27T11:05:33.270Z,26.6
2017-12-27T11:08:30.062Z,26.6
2017-12-27T11:11:27.645Z,26.5
2017-12-27T11:17:21.197Z,26.5
2017-12-27T11:23:15.204Z,26.4
2017-12-27T11:26:12.077Z,26.4
2017-12-27T11:29:09.276Z,26.4
2017-12-27T11:35:03.152Z,26.4
2017-12-27T11:38:00.047Z,26.4
2017-12-27T11:43:54.112Z,26.4
2017-12-27T11:46:51.056Z,26.3
2017-12-27T11:49:48.283Z,26.3
2017-12-27T11:55:42.129Z,26.2
2017-12-27T11:58:39.159Z,26.2
2017-12-27T12:01:36.205Z,26.2
2017-12-27T12:13:24.851Z,26.2
2017-12-27T12:16:21.218Z,26.1
2017-12-27T12:19:18.181Z,26
2017-12-27T12:22:15.131Z,26
2017-12-27T12:25:12.265Z,26
2017-12-27T12:28:09.122Z,26
2017-12-27T12:31:07.228Z,26
2017-12-27T12:34:03.153Z,26
2017-12-27T12:37:00.209Z,25.9
2017-12-27T12:39:57.160Z,25.9
2017-12-27T12:42:54.182Z,25.9
2017-12-27T12:45:51.114Z,25.9
2017-12-27T12:51:45.238Z,25.9
2017-12-27T12:54:42.121Z,25.9
2017-12-27T12:57:39.227Z,25.9
2017-12-27T13:00:36.195Z,25.9
2017-12-27T13:03:33.243Z,25.8
2017-12-27T13:06:30.191Z,25.8
2017-12-27T13:09:27.210Z,25.8
2017-12-27T13:12:24.173Z,25.8
2017-12-27T13:15:21.171Z,25.8
2017-12-27T13:18:18.173Z,25.8
2017-12-27T13:21:15.319Z,25.8
2017-12-27T13:24:14.291Z,25.8
2017-12-27T13:27:09.205Z,25.7
2017-12-27T13:30:06.140Z,25.7
2017-12-27T13:33:03.179Z,25.6
2017-12-27T13:36:00.226Z,25.6
2017-12-27T13:38:57.281Z,25.6
2017-12-27T13:41:54.163Z,25.6
2017-12-27T13:44:51.381Z,25.6
2017-12-27T13:47:48.179Z,25.5
2017-12-27T13:53:42.206Z,25.5
2017-12-27T13:56:39.181Z,25.4
2017-12-27T13:59:36.202Z,25.5
2017-12-27T14:05:30.344Z,25.4
2017-12-27T14:08:27.298Z,25.4
2017-12-27T14:11:24.291Z,25.4
2017-12-27T14:14:21.248Z,25.4
2017-12-27T14:17:18.240Z,25.4
2017-12-27T14:20:15.235Z,25.4
2017-12-27T14:26:09.247Z,25.4
2017-12-27T14:29:06.581Z,25.4
2017-12-27T14:32:03.258Z,25.4
2017-12-27T14:37:58.444Z,25.4
2017-12-27T14:40:54.225Z,25.3
2017-12-27T14:43:51.292Z,25.3
2017-12-27T14:49:45.277Z,25.3
2017-12-27T14:52:42.236Z,25.3
2017-12-27T14:55:39.311Z,25.2
2017-12-27T14:58:36.199Z,25.2
2017-12-27T15:01:33.319Z,25.2
2017-12-27T15:04:30.322Z,25.2
2017-12-27T15:07:28.327Z,25.2
2017-12-27T15:10:24.387Z,25.2
2017-12-27T15:13:21.266Z,25.1
2017-12-27T15:16:18.350Z,25.2
2017-12-27T15:19:15.454Z,25.2
2017-12-27T15:22:12.246Z,25.1
2017-12-27T15:25:09.296Z,25.1
2017-12-27T15:31:03.268Z,25.1
2017-12-27T15:36:57.229Z,25
2017-12-27T15:39:54.257Z,25
2017-12-27T15:42:51.245Z,25
2017-12-27T15:45:48.263Z,25
2017-12-27T15:48:45.318Z,25
2017-12-27T15:51:42.345Z,25
2017-12-27T15:57:36.294Z,25.1
2017-12-27T16:00:34.242Z,25
2017-12-27T16:03:30.317Z,25
2017-12-27T16:06:27.213Z,25
2017-12-27T16:09:24.334Z,25
2017-12-27T16:15:18.331Z,25
2017-12-27T16:18:15.316Z,25
2017-12-27T16:21:12.270Z,24.9
2017-12-27T16:24:09.236Z,24.9
2017-12-27T16:27:06.324Z,24.9
2017-12-27T16:35:57.258Z,24.9
2017-12-27T16:38:54.270Z,24.8
2017-12-27T16:41:51.456Z,24.8
2017-12-27T16:44:48.296Z,24.9
2017-12-27T16:47:45.314Z,24.9
2017-12-27T16:53:39.294Z,24.8
2017-12-27T16:56:36.256Z,24.9
2017-12-27T17:05:27.586Z,24.8
2017-12-27T17:08:24.277Z,24.8
2017-12-27T17:17:15.405Z,24.8
2017-12-27T17:20:13.335Z,24.8
2017-12-27T17:23:09.314Z,24.8
2017-12-27T17:26:06.312Z,24.8
2017-12-27T17:32:00.354Z,24.8
2017-12-27T17:34:57.572Z,24.8
2017-12-27T17:37:54.364Z,24.8
2017-12-27T17:43:48.492Z,24.8
2017-12-27T17:49:42.350Z,24.9
2017-12-27T17:52:39.249Z,24.8
2017-12-27T18:04:28.304Z,24.8
2017-12-27T18:07:24.350Z,24.8
2017-12-27T18:10:21.291Z,24.8
2017-12-27T18:16:15.403Z,24.8
2017-12-27T18:19:12.223Z,24.8
2017-12-27T18:22:09.310Z,24.7
2017-12-27T18:25:06.204Z,24.7
2017-12-27T18:28:03.367Z,24.7
2017-12-27T18:31:00.235Z,24.7
2017-12-27T18:33:57.281Z,24.7
2017-12-27T18:36:54.203Z,24.7
2017-12-27T18:39:51.309Z,24.7
2017-12-27T18:42:48.194Z,24.7
2017-12-27T18:48:42.311Z,24.7
2017-12-27T18:51:39.243Z,24.8
2017-12-27T18:54:36.329Z,24.7
2017-12-27T18:57:33.188Z,24.7
2017-12-27T19:00:30.310Z,24.7
2017-12-27T19:03:27.247Z,24.7
2017-12-27T19:09:21.340Z,24.7
2017-12-27T19:15:16.399Z,24.7
2017-12-27T19:18:13.229Z,24.7
2017-12-27T19:21:09.505Z,24.8
2017-12-27T19:24:06.283Z,24.7
2017-12-27T19:27:03.301Z,24.8
2017-12-27T19:30:00.242Z,24.8
2017-12-27T19:32:57.342Z,24.8
2017-12-27T19:35:54.284Z,24.8
2017-12-27T19:38:51.411Z,24.8
2017-12-27T19:41:49.296Z,24.8
2017-12-27T19:44:45.342Z,24.8
2017-12-27T19:47:42.293Z,24.8
2017-12-27T19:53:36.335Z,24.8
2017-12-27T19:56:33.397Z,24.8
2017-12-27T19:59:30.326Z,24.8
2017-12-27T20:02:28.305Z,24.8
2017-12-27T20:05:24.332Z,24.8
2017-12-27T20:08:21.366Z,24.8
2017-12-27T20:11:18.332Z,24.8
2017-12-27T20:14:15.292Z,24.8
2017-12-27T20:17:12.336Z,24.8
2017-12-27T20:20:09.288Z,24.8
2017-12-27T20:23:06.342Z,24.8
2017-12-27T20:26:03.260Z,24.8
2017-12-27T20:29:00.340Z,24.7
2017-12-27T20:31:57.266Z,24.7
2017-12-27T20:37:51.324Z,24.7
2017-12-27T20:40:48.306Z,24.6
2017-12-27T20:43:45.374Z,24.6
2017-12-27T20:46:42.264Z,24.5
2017-12-27T20:52:36.416Z,24.5
2017-12-27T20:55:33.254Z,24.5
2017-12-27T20:58:30.456Z,24.5
2017-12-27T21:01:28.448Z,24.4
2017-12-27T21:04:24.407Z,24.4
2017-12-27T21:07:21.440Z,24.3
2017-12-27T21:10:18.342Z,24.4
2017-12-27T21:13:16.323Z,24.3
2017-12-27T21:16:12.392Z,24.3
2017-12-27T21:19:09.291Z,24.3
2017-12-27T21:22:07.362Z,24.2
2017-12-27T21:25:04.273Z,24.2
2017-12-27T21:28:00.580Z,24.2
2017-12-27T21:30:57.307Z,24.2
2017-12-27T21:33:55.415Z,24.2
2017-12-27T21:36:52.329Z,24.2
2017-12-27T21:42:45.370Z,24.2
2017-12-27T21:45:42.544Z,24.2
2017-12-27T21:48:40.572Z,24.2
2017-12-27T21:51:36.320Z,24.2
2017-12-27T21:54:34.359Z,24.2
2017-12-27T21:57:30.320Z,24.2
2017-12-27T22:00:28.516Z,24.2
2017-12-27T22:03:25.317Z,24.2
2017-12-27T22:06:22.392Z,24.2
2017-12-27T22:09:19.366Z,24.2
2017-12-27T22:12:16.399Z,24.2
2017-12-27T22:15:13.354Z,24.1
2017-12-27T22:18:10.432Z,24.1
2017-12-27T22:21:07.331Z,24.1
2017-12-27T22:24:04.406Z,24.1
2017-12-27T22:27:01.365Z,24.2
2017-12-27T22:29:58.416Z,24.2
2017-12-27T22:32:55.404Z,24.2
2017-12-27T22:35:52.372Z,24.2
2017-12-27T22:38:49.332Z,24.2
2017-12-27T22:41:46.374Z,24.2
2017-12-27T22:44:43.313Z,24.2
2017-12-27T22:50:37.392Z,24.2
2017-12-27T22:53:34.307Z,24.2
2017-12-27T22:56:31.435Z,24.2
2017-12-27T22:59:28.335Z,24.2
2017-12-27T23:02:25.414Z,24.2
2017-12-27T23:05:22.334Z,24.2
2017-12-27T23:08:19.459Z,24.2
2017-12-27T23:11:16.386Z,24.2
2017-12-27T23:14:13.420Z,24.2
2017-12-27T23:17:10.362Z,24.2
2017-12-27T23:20:07.507Z,24.2
2017-12-27T23:23:04.636Z,24.2
2017-12-27T23:26:01.624Z,24.2
2017-12-27T23:28:58.483Z,24.2
2017-12-27T23:31:55.514Z,24.2
2017-12-27T23:34:52.744Z,24.2
2017-12-27T23:40:46.548Z,24.2
2017-12-27T23:43:43.351Z,24.2
2017-12-27T23:46:40.446Z,24.2
2017-12-27T23:49:37.348Z,24.2
2017-12-27T23:52:34.551Z,24.2
2017-12-27T23:55:31.348Z,24.3
2017-12-27T23:58:28.408Z,24.3
